Time;durP1;ratioP1;P1;durP2;ratioP2;P2;SDS_P1;SDS_P2;PMS_P1;PMS_P2;Temp;Humidity;BMP_temperature;BMP_pressure;BME280_temperature;BME280_humidity;BME280_pressure;Samples;Min_cycle;Max_cycle;Signal;HPM_P1;HPM_P2
2023/07/02 00:02:16;;;;;;;2.83;2.50;;;17.20;99.90;;;;;;5221666;28;20211;-49
2023/07/02 00:04:46;;;;;;;2.10;2.00;;;17.20;99.90;;;;;;5222051;28;20210;-50
2023/07/02 00:07:17;;;;;;;2.53;2.43;;;17.20;99.90;;;;;;5222370;28;20525;-48
2023/07/02 00:09:48;;;;;;;2.97;2.80;;;17.20;99.90;;;;;;5225297;28;20191;-48
2023/07/02 00:12:20;;;;;;;3.67;3.37;;;17.10;99.90;;;;;;5222802;28;20179;-48
2023/07/02 00:14:52;;;;;;;2.13;2.03;;;17.20;99.90;;;;;;5223827;28;20210;-48
2023/07/02 00:17:23;;;;;;;1.60;1.60;;;17.10;99.90;;;;;;5217223;28;20433;-49
2023/07/02 00:19:54;;;;;;;2.27;2.27;;;17.10;99.90;;;;;;5216933;28;20429;-49
2023/07/02 00:22:24;;;;;;;1.93;1.93;;;17.10;99.90;;;;;;5200822;28;20691;-49
2023/07/02 00:24:55;;;;;;;2.17;2.17;;;17.10;99.90;;;;;;5220214;28;20575;-49
2023/07/02 00:27:26;;;;;;;1.73;1.73;;;17.00;99.90;;;;;;5220029;28;20183;-48
2023/07/02 00:29:56;;;;;;;2.37;2.27;;;17.10;99.90;;;;;;5221210;28;20236;-47
2023/07/02 00:32:28;;;;;;;2.20;2.20;;;17.00;99.90;;;;;;5220084;28;20208;-48
2023/07/02 00:34:58;;;;;;;2.50;2.40;;;17.00;99.90;;;;;;5223609;28;20606;-49
2023/07/02 00:37:29;;;;;;;2.30;2.20;;;17.00;99.90;;;;;;5218951;28;20425;-48
2023/07/02 00:40:00;;;;;;;2.60;2.50;;;17.00;99.90;;;;;;5224586;28;20192;-48
2023/07/02 00:42:30;;;;;;;2.50;2.40;;;17.00;99.90;;;;;;5228638;28;20255;-48
2023/07/02 00:45:04;;;;;;;2.53;2.33;;;17.00;99.90;;;;;;5224900;28;20743;-48
2023/07/02 00:47:35;;;;;;;2.40;2.33;;;17.00;99.90;;;;;;5236857;28;20175;-49
2023/07/02 00:50:09;;;;;;;4.53;3.03;;;17.00;99.90;;;;;;5221236;28;20934;-50
2023/07/02 00:52:39;;;;;;;3.87;3.67;;;17.00;99.90;;;;;;5204668;28;20430;-52
2023/07/02 00:55:10;;;;;;;3.20;3.00;;;17.00;99.90;;;;;;5218766;28;20470;-48
2023/07/02 00:57:41;;;;;;;3.40;3.20;;;17.00;99.90;;;;;;5218164;28;20210;-47
2023/07/02 01:00:13;;;;;;;2.33;2.33;;;17.00;99.90;;;;;;5224265;28;20604;-48
2023/07/02 01:02:58;;;;;;;2.83;2.73;;;17.00;99.90;;;;;;5221614;28;20671;-48
2023/07/02 01:05:35;;;;;;;4.40;4.10;;;17.00;99.90;;;;;;5219995;28;20457;-48
2023/07/02 01:08:05;;;;;;;3.73;3.43;;;17.10;99.90;;;;;;5222111;28;20540;-48
2023/07/02 01:10:36;;;;;;;4.90;3.80;;;17.10;99.90;;;;;;5215852;28;20532;-48
2023/07/02 01:13:14;;;;;;;3.77;3.47;;;17.10;99.90;;;;;;5220397;28;20209;-48
2023/07/02 01:15:46;;;;;;;4.10;3.00;;;17.10;99.90;;;;;;5222263;28;20210;-48
2023/07/02 01:18:16;;;;;;;3.70;3.10;;;17.10;99.90;;;;;;5222670;28;20461;-48
2023/07/02 01:20:48;;;;;;;4.37;2.90;;;17.10;99.90;;;;;;5223055;28;20999;-47
2023/07/02 01:23:18;;;;;;;3.83;3.40;;;17.00;99.90;;;;;;5223441;28;20190;-47
2023/07/02 01:25:52;;;;;;;3.50;3.40;;;17.00;99.90;;;;;;5219495;28;20457;-48
2023/07/02 01:28:24;;;;;;;15.93;4.27;;;17.00;99.90;;;;;;5224077;28;20233;-48
2023/07/02 01:30:55;;;;;;;4.60;4.30;;;16.90;99.90;;;;;;5221717;28;21157;-48
2023/07/02 01:33:26;;;;;;;3.70;3.53;;;16.90;99.90;;;;;;5223873;28;20444;-48
2023/07/02 01:35:56;;;;;;;4.30;4.10;;;16.90;99.90;;;;;;5223789;28;20199;-47
2023/07/02 01:38:27;;;;;;;4.00;3.80;;;16.90;99.90;;;;;;5219935;28;20264;-48
2023/07/02 01:40:58;;;;;;;4.77;4.40;;;16.90;99.90;;;;;;5222144;28;20175;-48
2023/07/02 01:43:28;;;;;;;7.00;4.80;;;16.80;99.90;;;;;;5224048;28;20175;-48
2023/07/02 01:46:01;;;;;;;4.77;4.47;;;16.80;99.90;;;;;;5225074;28;20207;-47
2023/07/02 01:48:32;;;;;;;7.80;4.40;;;16.80;99.90;;;;;;5223461;28;20270;-47
2023/07/02 01:51:02;;;;;;;4.53;4.20;;;16.80;99.90;;;;;;5227344;28;20450;-48
2023/07/02 01:53:33;;;;;;;4.03;3.83;;;16.80;99.90;;;;;;5223628;28;20262;-48
2023/07/02 01:56:07;;;;;;;4.93;4.63;;;16.90;99.90;;;;;;5221210;28;20205;-48
2023/07/02 01:58:37;;;;;;;5.43;5.03;;;16.90;99.90;;;;;;5217223;28;20733;-48
2023/07/02 02:01:08;;;;;;;5.83;4.97;;;16.90;99.90;;;;;;5231136;28;20434;-47
2023/07/02 02:03:38;;;;;;;5.50;5.10;;;16.90;99.90;;;;;;5228832;28;20183;-48
2023/07/02 02:06:09;;;;;;;4.80;4.50;;;16.90;99.90;;;;;;5227157;28;20205;-47
2023/07/02 02:08:40;;;;;;;5.60;5.07;;;16.90;99.90;;;;;;5224183;28;20187;-47
2023/07/02 02:11:10;;;;;;;5.37;5.07;;;16.90;99.90;;;;;;5221482;28;20555;-48
2023/07/02 02:13:42;;;;;;;5.43;5.13;;;16.90;99.90;;;;;;5223851;28;20183;-48
2023/07/02 02:16:13;;;;;;;5.67;5.27;;;16.80;99.90;;;;;;5225203;28;20408;-48
2023/07/02 02:18:43;;;;;;;5.80;5.20;;;16.80;99.90;;;;;;5224230;28;20462;-48
2023/07/02 02:21:14;;;;;;;6.50;5.23;;;16.80;99.90;;;;;;5222185;28;20229;-48
2023/07/02 02:23:45;;;;;;;6.67;6.13;;;16.80;99.90;;;;;;5223705;28;20196;-48
2023/07/02 02:26:15;;;;;;;5.23;4.97;;;16.80;99.90;;;;;;5224096;28;20285;-48
2023/07/02 02:28:46;;;;;;;5.70;5.40;;;16.80;99.90;;;;;;5233543;28;20289;-48
2023/07/02 02:31:17;;;;;;;5.37;4.87;;;16.80;99.90;;;;;;5223487;28;20193;-47
2023/07/02 02:33:48;;;;;;;5.00;4.70;;;16.80;99.90;;;;;;5218027;28;20236;-48
2023/07/02 02:36:19;;;;;;;7.57;5.47;;;16.80;99.90;;;;;;5219191;28;21662;-48
2023/07/02 02:38:49;;;;;;;5.23;4.73;;;16.80;99.90;;;;;;5223082;28;20519;-47
2023/07/02 02:41:20;;;;;;;7.40;6.13;;;16.80;99.90;;;;;;5221960;28;20205;-47
2023/07/02 02:43:50;;;;;;;6.13;5.23;;;16.80;99.90;;;;;;5220121;28;20194;-47
2023/07/02 02:46:23;;;;;;;7.13;4.67;;;16.80;99.90;;;;;;5218034;28;20242;-47
2023/07/02 02:48:53;;;;;;;4.70;4.30;;;16.80;99.90;;;;;;5218531;28;20191;-47
2023/07/02 02:51:24;;;;;;;5.17;4.77;;;16.80;99.90;;;;;;5223993;28;20505;-47
2023/07/02 02:53:54;;;;;;;5.90;5.07;;;16.80;99.90;;;;;;5224502;28;20276;-47
2023/07/02 02:56:25;;;;;;;4.80;4.40;;;16.80;99.90;;;;;;5223985;28;20203;-46
2023/07/02 02:58:56;;;;;;;5.70;4.90;;;16.80;99.90;;;;;;5220625;28;20249;-47
2023/07/02 03:01:30;;;;;;;4.93;4.53;;;16.80;99.90;;;;;;5222049;28;20179;-47
2023/07/02 03:04:01;;;;;;;5.50;4.70;;;16.80;99.90;;;;;;5223105;28;20170;-48
2023/07/02 03:06:31;;;;;;;6.20;4.47;;;16.80;99.90;;;;;;5225343;28;20436;-47
2023/07/02 03:09:02;;;;;;;6.47;4.77;;;16.80;99.90;;;;;;5219297;28;20194;-46
2023/07/02 03:11:33;;;;;;;5.13;4.47;;;16.80;99.90;;;;;;5220825;28;20207;-48
2023/07/02 03:14:03;;;;;;;4.10;3.80;;;16.90;99.90;;;;;;5219426;28;20270;-47
2023/07/02 03:16:34;;;;;;;4.90;4.50;;;16.90;99.90;;;;;;5221060;28;20241;-47
2023/07/02 03:19:04;;;;;;;5.47;3.80;;;16.90;99.90;;;;;;5226520;28;20199;-47
2023/07/02 03:21:35;;;;;;;6.30;3.83;;;16.90;99.90;;;;;;5219702;28;20187;-47
2023/07/02 03:24:07;;;;;;;4.20;3.80;;;17.00;99.90;;;;;;5221819;28;20194;-48
2023/07/02 03:26:37;;;;;;;15.13;3.87;;;17.00;99.90;;;;;;5223304;28;20691;-47
2023/07/02 03:29:08;;;;;;;4.37;4.07;;;17.00;99.90;;;;;;5218419;28;20481;-47
2023/07/02 03:31:39;;;;;;;4.90;3.80;;;17.00;99.90;;;;;;5222691;28;20727;-47
2023/07/02 03:34:10;;;;;;;4.00;3.63;;;17.00;99.90;;;;;;5224904;28;20429;-47
2023/07/02 03:36:41;;;;;;;10.53;3.13;;;17.00;99.90;;;;;;5220994;28;20230;-47
2023/07/02 03:39:12;;;;;;;3.57;3.37;;;17.10;99.90;;;;;;5221934;28;20855;-48
2023/07/02 03:41:43;;;;;;;3.63;3.40;;;17.10;99.90;;;;;;5223780;28;20175;-47
2023/07/02 03:44:13;;;;;;;5.10;3.87;;;17.00;99.90;;;;;;5219525;28;20175;-48
2023/07/02 03:46:44;;;;;;;5.33;3.87;;;17.00;99.90;;;;;;5221582;28;20440;-46
2023/07/02 03:49:15;;;;;;;5.03;3.63;;;17.10;99.90;;;;;;5227633;28;20213;-47
2023/07/02 03:51:45;;;;;;;6.33;3.00;;;17.10;99.90;;;;;;5218585;28;20555;-47
2023/07/02 03:54:16;;;;;;;3.47;2.90;;;17.10;99.90;;;;;;5227998;28;20178;-47
2023/07/02 03:56:47;;;;;;;5.13;3.27;;;17.10;99.90;;;;;;5220634;28;20265;-46
2023/07/02 03:59:18;;;;;;;3.70;3.40;;;17.10;99.90;;;;;;5221963;28;20338;-48
2023/07/02 04:01:51;;;;;;;8.00;3.20;;;17.10;99.90;;;;;;5224348;28;20191;-48
2023/07/02 04:04:21;;;;;;;3.33;3.17;;;17.10;99.90;;;;;;5228527;28;20461;-47
2023/07/02 04:06:52;;;;;;;9.03;3.63;;;17.10;99.90;;;;;;5228880;28;20441;-47
2023/07/02 04:09:23;;;;;;;2.37;2.27;;;17.20;99.90;;;;;;5230837;28;20179;-48
2023/07/02 04:11:53;;;;;;;3.43;3.23;;;17.20;99.90;;;;;;5230301;28;20237;-48
2023/07/02 04:14:24;;;;;;;3.10;3.00;;;17.20;99.90;;;;;;5229385;28;20202;-48
2023/07/02 04:16:54;;;;;;;5.37;3.23;;;17.20;99.90;;;;;;5228394;28;20198;-47
2023/07/02 04:19:25;;;;;;;5.07;2.80;;;17.20;99.90;;;;;;5225342;28;20211;-52
2023/07/02 04:21:56;;;;;;;2.07;2.07;;;17.30;99.90;;;;;;5221381;28;20260;-48
2023/07/02 04:24:26;;;;;;;3.07;2.97;;;17.40;99.90;;;;;;5221317;28;20607;-48
2023/07/02 04:26:57;;;;;;;7.70;3.10;;;17.40;99.90;;;;;;5201768;28;20183;-48
2023/07/02 04:29:27;;;;;;;2.57;2.47;;;17.40;99.90;;;;;;5222409;28;20183;-48
2023/07/02 04:31:58;;;;;;;3.10;2.80;;;17.50;99.90;;;;;;5221154;28;20581;-47
2023/07/02 04:34:29;;;;;;;4.70;3.10;;;17.60;99.90;;;;;;5224632;28;20199;-47
2023/07/02 04:36:59;;;;;;;3.10;2.60;;;17.70;99.90;;;;;;5234020;28;20187;-47
2023/07/02 04:39:30;;;;;;;2.73;2.33;;;18.10;99.90;;;;;;5218457;28;20214;-47
2023/07/02 04:42:00;;;;;;;2.10;2.00;;;18.40;99.90;;;;;;5220501;28;20261;-48
2023/07/02 04:44:31;;;;;;;2.43;2.33;;;18.60;99.90;;;;;;5205780;28;20260;-47
2023/07/02 04:47:02;;;;;;;2.00;1.90;;;18.70;99.90;;;;;;5258687;22;20230;-44
2023/07/02 04:49:33;;;;;;;2.60;2.40;;;18.80;99.90;;;;;;5256980;28;20182;-45
2023/07/02 04:52:03;;;;;;;2.57;2.37;;;18.70;99.90;;;;;;5225105;28;20493;-44
2023/07/02 04:54:34;;;;;;;2.97;2.33;;;18.80;99.90;;;;;;5238623;28;20592;-45
2023/07/02 04:57:05;;;;;;;3.63;2.00;;;19.00;99.90;;;;;;5235197;28;20202;-45
2023/07/02 04:59:36;;;;;;;2.63;2.43;;;18.90;99.90;;;;;;5202115;28;20239;-45
2023/07/02 05:02:06;;;;;;;2.30;2.20;;;18.90;99.90;;;;;;5238274;28;20638;-44
2023/07/02 05:04:37;;;;;;;3.33;3.03;;;19.00;99.90;;;;;;5237693;28;20194;-44
2023/07/02 05:07:08;;;;;;;2.30;2.10;;;19.40;99.90;;;;;;5238980;28;20198;-44
2023/07/02 05:09:38;;;;;;;1.97;1.90;;;20.40;99.90;;;;;;5238465;28;20213;-44
2023/07/02 05:12:10;;;;;;;1.93;1.70;;;21.60;99.90;;;;;;5220607;28;20214;-44
2023/07/02 05:14:40;;;;;;;2.63;1.80;;;22.20;99.90;;;;;;5238639;28;20202;-43
2023/07/02 05:17:14;;;;;;;2.37;2.27;;;22.80;99.90;;;;;;5239606;28;20482;-44
2023/07/02 05:19:44;;;;;;;2.87;2.10;;;22.70;99.90;;;;;;5238214;28;20214;-44
2023/07/02 05:22:15;;;;;;;4.03;1.77;;;22.30;99.90;;;;;;5236281;28;20432;-44
2023/07/02 05:24:46;;;;;;;1.90;1.80;;;22.50;99.90;;;;;;5241998;28;20219;-44
2023/07/02 05:27:17;;;;;;;1.70;1.60;;;22.50;99.90;;;;;;5216655;28;20182;-43
2023/07/02 05:29:47;;;;;;;2.30;2.00;;;22.80;99.90;;;;;;5211572;28;20444;-43
2023/07/02 05:32:18;;;;;;;2.53;1.80;;;23.30;99.90;;;;;;5239148;28;20261;-44
2023/07/02 05:34:49;;;;;;;2.57;1.40;;;23.20;99.90;;;;;;5220228;28;20565;-44
2023/07/02 05:37:19;;;;;;;1.87;1.73;;;23.50;99.90;;;;;;5242690;28;20657;-44
2023/07/02 05:39:50;;;;;;;1.93;1.83;;;23.90;99.90;;;;;;5238451;28;20199;-43
2023/07/02 05:42:21;;;;;;;2.47;1.73;;;24.90;99.60;;;;;;5219405;28;20187;-45
2023/07/02 05:44:51;;;;;;;5.67;2.60;;;26.20;95.60;;;;;;5244088;28;20187;-42
2023/07/02 05:47:22;;;;;;;4.73;1.47;;;27.80;82.00;;;;;;5221456;28;20229;-43
2023/07/02 05:49:53;;;;;;;1.10;1.10;;;27.80;72.90;;;;;;5223607;28;20229;-44
2023/07/02 05:52:23;;;;;;;6.87;2.20;;;27.00;71.40;;;;;;5217474;28;20202;-43
2023/07/02 05:54:54;;;;;;;1.97;1.87;;;26.20;73.70;;;;;;5225934;28;20186;-44
2023/07/02 05:57:25;;;;;;;4.23;1.60;;;28.00;68.50;;;;;;5224891;28;20195;-44
2023/07/02 05:59:55;;;;;;;1.90;1.60;;;29.50;60.60;;;;;;5231476;28;20701;-44
2023/07/02 06:02:26;;;;;;;9.73;1.30;;;30.40;55.40;;;;;;5219246;28;20281;-47
2023/07/02 06:04:57;;;;;;;4.67;1.30;;;31.10;52.40;;;;;;5239171;28;20210;-45
2023/07/02 06:07:28;;;;;;;1.67;1.57;;;31.60;49.10;;;;;;5233743;28;20652;-43
2023/07/02 06:09:58;;;;;;;1.50;1.40;;;32.70;48.60;;;;;;5227510;28;20459;-44
2023/07/02 06:12:29;;;;;;;8.50;1.77;;;33.30;43.60;;;;;;5244087;28;20548;-43
2023/07/02 06:15:00;;;;;;;1.50;1.40;;;31.80;44.30;;;;;;5242944;28;20246;-43
2023/07/02 06:17:30;;;;;;;1.80;0.93;;;29.60;47.70;;;;;;5226462;28;20212;-47
2023/07/02 06:20:05;;;;;;;1.57;1.47;;;29.60;48.80;;;;;;5234597;28;20177;-43
2023/07/02 06:22:36;;;;;;;3.50;2.17;;;29.20;49.00;;;;;;5226269;28;20196;-44
2023/07/02 06:25:07;;;;;;;2.00;1.67;;;27.90;51.30;;;;;;5235229;28;20456;-44
2023/07/02 06:27:37;;;;;;;4.70;2.10;;;26.30;53.10;;;;;;5237438;28;20390;-44
2023/07/02 06:30:08;;;;;;;2.50;2.20;;;25.10;56.30;;;;;;5222905;28;20193;-44
2023/07/02 06:32:39;;;;;;;2.43;1.80;;;24.00;58.30;;;;;;5241779;28;20192;-43
2023/07/02 06:35:10;;;;;;;2.70;2.10;;;23.50;60.00;;;;;;5245015;28;20457;-46
2023/07/02 06:37:40;;;;;;;2.87;1.83;;;23.10;61.60;;;;;;5228506;28;20170;-44
2023/07/02 06:40:11;;;;;;;2.00;1.67;;;23.30;63.90;;;;;;5241521;28;20183;-43
2023/07/02 06:42:42;;;;;;;3.90;2.10;;;24.20;61.40;;;;;;5223876;28;20178;-43
2023/07/02 06:45:12;;;;;;;2.30;1.90;;;25.70;57.80;;;;;;5228963;28;20198;-45
2023/07/02 06:47:43;;;;;;;4.80;1.97;;;28.40;52.50;;;;;;5246785;28;20280;-44
2023/07/02 06:50:14;;;;;;;5.30;2.07;;;30.30;48.50;;;;;;5219348;28;20197;-45
2023/07/02 06:52:45;;;;;;;2.80;1.67;;;32.20;45.00;;;;;;5226784;28;20303;-45
2023/07/02 06:55:15;;;;;;;1.93;1.83;;;33.70;41.30;;;;;;5236058;28;20245;-43
2023/07/02 06:57:47;;;;;;;2.00;1.90;;;34.90;38.70;;;;;;5230242;28;20189;-44
2023/07/02 07:00:17;;;;;;;3.10;1.97;;;34.30;38.80;;;;;;5237934;28;20182;-44
2023/07/02 07:02:48;;;;;;;2.13;1.50;;;33.30;38.80;;;;;;5224523;28;20181;-45
2023/07/02 07:05:19;;;;;;;2.23;2.00;;;32.30;40.20;;;;;;5238267;28;20213;-45
2023/07/02 07:07:49;;;;;;;1.90;1.80;;;30.70;41.80;;;;;;5222982;28;20193;-44
2023/07/02 07:10:20;;;;;;;8.23;2.23;;;29.10;44.50;;;;;;5222288;28;20178;-43
2023/07/02 07:12:51;;;;;;;2.17;2.00;;;27.90;46.90;;;;;;5220617;28;20181;-45
2023/07/02 07:15:21;;;;;;;2.17;2.03;;;27.10;49.10;;;;;;5221707;28;20198;-43
2023/07/02 07:17:52;;;;;;;5.33;2.33;;;26.80;49.20;;;;;;5242570;28;20202;-44
2023/07/02 07:20:23;;;;;;;2.63;2.50;;;26.40;49.50;;;;;;5241908;28;20203;-44
2023/07/02 07:22:54;;;;;;;2.40;2.20;;;25.80;50.90;;;;;;5224689;28;20470;-45
2023/07/02 07:25:24;;;;;;;2.10;2.00;;;25.60;51.60;;;;;;5225078;28;20201;-45
2023/07/02 07:27:55;;;;;;;5.57;2.10;;;25.90;51.70;;;;;;5239559;28;20585;-43
2023/07/02 07:30:26;;;;;;;3.10;2.00;;;26.30;50.90;;;;;;5223875;28;20212;-45
2023/07/02 07:32:57;;;;;;;7.97;2.20;;;26.60;50.40;;;;;;5236422;28;20190;-42
2023/07/02 07:35:28;;;;;;;3.43;1.77;;;27.60;48.00;;;;;;5227355;28;20210;-43
2023/07/02 07:37:58;;;;;;;2.60;2.43;;;28.20;47.20;;;;;;5243326;28;20202;-45
2023/07/02 07:40:29;;;;;;;5.73;2.33;;;29.70;45.60;;;;;;5245648;28;20216;-44
2023/07/02 07:43:00;;;;;;;2.20;2.10;;;29.40;44.90;;;;;;5239881;28;20174;-46
2023/07/02 07:45:30;;;;;;;4.00;1.93;;;28.20;46.20;;;;;;5239618;28;20206;-46
2023/07/02 07:48:01;;;;;;;3.10;1.80;;;26.90;47.70;;;;;;5220838;28;20187;-44
2023/07/02 07:50:32;;;;;;;3.87;2.43;;;25.60;50.40;;;;;;5222334;28;20186;-44
2023/07/02 07:53:03;;;;;;;1.93;1.73;;;24.90;52.50;;;;;;5210230;28;20460;-44
2023/07/02 07:55:34;;;;;;;2.23;2.00;;;24.20;53.90;;;;;;5220949;28;20218;-47
2023/07/02 07:58:04;;;;;;;2.40;2.30;;;23.50;54.80;;;;;;5238299;28;20199;-44
2023/07/02 08:00:35;;;;;;;2.70;2.37;;;22.70;55.90;;;;;;5242853;28;20182;-45
2023/07/02 08:03:06;;;;;;;3.83;2.30;;;22.30;57.30;;;;;;5223801;28;20178;-44
2023/07/02 08:05:37;;;;;;;3.87;2.63;;;22.00;58.60;;;;;;5246892;28;20289;-44
2023/07/02 08:08:08;;;;;;;4.10;2.50;;;21.70;60.20;;;;;;5239713;28;20189;-44
2023/07/02 08:10:39;;;;;;;3.70;2.00;;;21.60;62.20;;;;;;5237092;28;20195;-45
2023/07/02 08:13:09;;;;;;;2.00;1.90;;;21.60;62.70;;;;;;5228123;28;20455;-44
2023/07/02 08:15:40;;;;;;;3.67;2.37;;;21.50;63.40;;;;;;5239926;28;20201;-44
2023/07/02 08:18:13;;;;;;;3.90;2.10;;;21.40;64.20;;;;;;5240987;28;20206;-45
2023/07/02 08:20:43;;;;;;;5.40;2.50;;;21.10;65.80;;;;;;5207435;28;20337;-44
2023/07/02 08:23:14;;;;;;;2.47;2.27;;;21.10;67.70;;;;;;5243536;28;20524;-46
2023/07/02 08:25:45;;;;;;;2.80;2.57;;;21.00;68.50;;;;;;5234426;28;20207;-44
2023/07/02 08:28:15;;;;;;;5.93;3.00;;;21.00;69.70;;;;;;5221641;28;20202;-43
2023/07/02 08:30:46;;;;;;;5.40;2.03;;;21.00;70.50;;;;;;5235366;28;20183;-45
2023/07/02 08:33:17;;;;;;;2.50;2.30;;;21.10;70.70;;;;;;5241538;28;20564;-44
2023/07/02 08:35:48;;;;;;;2.43;2.33;;;21.10;70.70;;;;;;5238420;28;20205;-44
2023/07/02 08:38:18;;;;;;;3.53;2.70;;;21.10;71.60;;;;;;5194455;28;20575;-44
2023/07/02 08:40:50;;;;;;;2.43;2.23;;;21.20;72.00;;;;;;5241678;28;20174;-44
2023/07/02 08:43:21;;;;;;;5.50;2.63;;;21.20;72.10;;;;;;5220143;28;20174;-45
2023/07/02 08:45:53;;;;;;;2.97;2.70;;;21.30;70.80;;;;;;5241461;28;20467;-43
2023/07/02 08:48:26;;;;;;;3.50;2.77;;;21.40;70.30;;;;;;5241943;28;20436;-44
2023/07/02 08:50:56;;;;;;;4.47;2.70;;;21.40;69.40;;;;;;5240189;28;20489;-46
2023/07/02 08:53:33;;;;;;;2.60;2.40;;;21.40;70.30;;;;;;5242741;28;20452;-43
2023/07/02 08:56:04;;;;;;;4.33;2.00;;;21.30;70.00;;;;;;5222183;28;20198;-45
2023/07/02 08:58:35;;;;;;;8.80;2.93;;;21.50;69.50;;;;;;5240627;28;20469;-43
2023/07/02 09:01:12;;;;;;;4.07;2.70;;;21.50;67.90;;;;;;5216724;28;20444;-44
2023/07/02 09:03:43;;;;;;;4.73;2.70;;;21.50;67.00;;;;;;5236478;28;20177;-43
2023/07/02 09:06:16;;;;;;;4.67;2.83;;;21.70;65.70;;;;;;5244464;28;21093;-43
2023/07/02 09:08:47;;;;;;;7.80;3.13;;;21.80;65.30;;;;;;5240131;28;20190;-45
2023/07/02 09:11:19;;;;;;;4.73;2.63;;;22.10;65.80;;;;;;5222863;28;20759;-46
2023/07/02 09:13:53;;;;;;;3.70;3.00;;;22.20;63.50;;;;;;5231516;28;20179;-44
2023/07/02 09:16:36;;;;;;;6.93;3.90;;;22.50;61.60;;;;;;5234225;28;20900;-45
2023/07/02 09:19:08;;;;;;;5.80;3.13;;;22.80;60.60;;;;;;5221183;28;20455;-43
2023/07/02 09:21:45;;;;;;;4.00;2.80;;;23.10;58.70;;;;;;5223923;28;20437;-47
2023/07/02 09:24:20;;;;;;;3.50;2.90;;;23.40;57.30;;;;;;5212720;28;20539;-44
2023/07/02 09:26:57;;;;;;;5.00;3.37;;;23.60;56.50;;;;;;5228871;28;20460;-45
2023/07/02 09:29:30;;;;;;;5.23;3.70;;;23.30;56.70;;;;;;5224946;28;20440;-47
2023/07/02 09:32:03;;;;;;;4.00;3.60;;;23.30;56.30;;;;;;5228861;28;20441;-44
2023/07/02 09:34:36;;;;;;;4.27;3.87;;;23.60;56.30;;;;;;5238730;28;20839;-47
2023/07/02 09:37:07;;;;;;;5.10;3.33;;;23.90;55.60;;;;;;5229621;28;20465;-46
2023/07/02 09:39:39;;;;;;;9.43;4.60;;;24.20;54.30;;;;;;5244547;28;20863;-45
2023/07/02 09:42:10;;;;;;;8.97;3.37;;;24.30;53.90;;;;;;5222843;28;20174;-44
2023/07/02 09:44:42;;;;;;;6.03;4.00;;;24.50;53.10;;;;;;5239260;28;20485;-44
2023/07/02 09:47:18;;;;;;;6.73;3.80;;;24.70;53.70;;;;;;5240701;28;20514;-44
2023/07/02 09:50:02;;;;;;;4.67;4.17;;;24.90;53.50;;;;;;5241111;28;20445;-45
2023/07/02 09:52:34;;;;;;;5.57;3.60;;;24.90;53.00;;;;;;5223063;28;20440;-46
2023/07/02 09:55:07;;;;;;;6.50;3.90;;;24.90;51.90;;;;;;5223947;28;20439;-47
2023/07/02 09:57:39;;;;;;;10.23;4.07;;;24.90;52.20;;;;;;5233299;28;20729;-44
2023/07/02 10:00:10;;;;;;;7.37;4.60;;;24.50;51.10;;;;;;5242156;28;20432;-44
2023/07/02 10:02:41;;;;;;;9.87;5.30;;;24.10;51.30;;;;;;5237692;28;20494;-44
2023/07/02 10:05:29;;;;;;;10.43;4.83;;;23.90;51.80;;;;;;5224060;28;20448;-46
2023/07/02 10:08:13;;;;;;;8.80;4.90;;;23.70;52.90;;;;;;5227994;28;20183;-47
2023/07/02 10:10:44;;;;;;;11.30;4.47;;;23.40;53.80;;;;;;5244980;28;20441;-45
2023/07/02 10:13:14;;;;;;;8.70;4.87;;;23.60;54.00;;;;;;5247361;28;20435;-45
2023/07/02 10:15:45;;;;;;;9.90;4.27;;;23.80;54.00;;;;;;5234487;28;20210;-43
2023/07/02 10:18:26;;;;;;;8.33;4.00;;;24.00;53.30;;;;;;5241715;28;20217;-45
2023/07/02 10:20:57;;;;;;;7.80;4.20;;;24.00;53.30;;;;;;5245013;28;20213;-46
2023/07/02 10:23:35;;;;;;;7.57;4.77;;;24.30;53.10;;;;;;5230355;28;20422;-45
2023/07/02 10:26:19;;;;;;;10.53;5.40;;;24.30;53.20;;;;;;5221620;28;20870;-45
2023/07/02 10:28:59;;;;;;;7.60;4.40;;;24.20;53.70;;;;;;5217282;28;20433;-47
2023/07/02 10:31:30;;;;;;;8.80;4.90;;;24.60;53.30;;;;;;5242505;28;20745;-44
2023/07/02 10:34:01;;;;;;;15.43;6.40;;;24.80;53.20;;;;;;5237376;28;20441;-45
2023/07/02 10:36:32;;;;;;;9.77;5.67;;;24.70;53.20;;;;;;5225136;28;21231;-46
2023/07/02 10:39:04;;;;;;;14.13;5.53;;;24.60;53.20;;;;;;5236267;28;20239;-44
2023/07/02 10:41:35;;;;;;;11.23;5.37;;;24.50;53.80;;;;;;5239071;28;20302;-43
2023/07/02 10:44:10;;;;;;;8.10;4.33;;;24.60;53.50;;;;;;5213019;28;20455;-46
2023/07/02 10:46:48;;;;;;;14.67;6.00;;;24.80;53.00;;;;;;5215863;28;20205;-44
2023/07/02 10:49:20;;;;;;;8.43;4.97;;;25.10;52.10;;;;;;5226407;28;20443;-44
2023/07/02 10:52:02;;;;;;;11.87;5.27;;;24.80;51.40;;;;;;5240787;28;20429;-45
2023/07/02 10:54:43;;;;;;;20.33;6.10;;;24.60;52.20;;;;;;5228436;28;20552;-44
2023/07/02 10:57:21;;;;;;;8.40;5.10;;;24.70;51.60;;;;;;5241053;28;20953;-45
2023/07/02 10:59:52;;;;;;;8.53;4.73;;;24.70;51.10;;;;;;5244477;28;20893;-45
2023/07/02 11:02:24;;;;;;;7.37;5.70;;;24.70;51.00;;;;;;5243641;28;20502;-45
2023/07/02 11:04:56;;;;;;;10.70;4.80;;;24.50;51.10;;;;;;5227059;28;20186;-46
2023/07/02 11:07:26;;;;;;;13.97;5.57;;;23.90;52.30;;;;;;5221679;28;20433;-44
2023/07/02 11:09:57;;;;;;;7.57;4.60;;;23.20;53.70;;;;;;5244220;28;20736;-43
2023/07/02 11:12:32;;;;;;;12.80;5.50;;;22.70;53.20;;;;;;5239795;28;20186;-45
2023/07/02 11:15:10;;;;;;;13.43;4.90;;;22.30;54.50;;;;;;5241831;28;20181;-46
2023/07/02 11:17:41;;;;;;;8.57;4.30;;;22.20;54.90;;;;;;5225675;28;20944;-48
2023/07/02 11:20:14;;;;;;;10.77;5.03;;;22.40;55.40;;;;;;5240480;28;20434;-45
2023/07/02 11:22:46;;;;;;;10.33;6.03;;;22.40;55.40;;;;;;5241826;28;20424;-45
2023/07/02 11:25:19;;;;;;;13.50;5.30;;;22.30;55.10;;;;;;5224318;28;20476;-45
2023/07/02 11:28:01;;;;;;;11.33;6.03;;;22.00;55.20;;;;;;5220483;28;20454;-45
2023/07/02 11:30:32;;;;;;;8.33;5.63;;;21.90;55.80;;;;;;5238703;28;20469;-43
2023/07/02 11:33:03;;;;;;;10.00;5.47;;;22.00;55.40;;;;;;5238484;28;20538;-44
2023/07/02 11:35:35;;;;;;;7.50;5.27;;;22.20;55.90;;;;;;5224134;28;20448;-47
2023/07/02 11:38:06;;;;;;;16.30;7.60;;;22.40;54.00;;;;;;5227538;28;20335;-44
2023/07/02 11:40:37;;;;;;;15.73;6.63;;;22.40;51.10;;;;;;5221231;28;20940;-45
2023/07/02 11:43:08;;;;;;;10.87;5.30;;;22.40;49.50;;;;;;5239490;28;20503;-44
2023/07/02 11:45:39;;;;;;;9.87;5.50;;;22.40;50.60;;;;;;5225305;28;20975;-43
2023/07/02 11:48:09;;;;;;;13.40;5.80;;;22.70;50.60;;;;;;5241312;28;20561;-44
2023/07/02 11:50:40;;;;;;;9.83;5.70;;;22.80;50.40;;;;;;5226306;28;20273;-44
2023/07/02 11:53:11;;;;;;;11.10;5.40;;;23.00;49.70;;;;;;5228447;28;20712;-45
2023/07/02 11:55:41;;;;;;;16.17;6.23;;;23.10;49.90;;;;;;5223392;28;20558;-44
2023/07/02 11:58:12;;;;;;;14.67;5.83;;;22.90;49.10;;;;;;5241214;28;20255;-44
2023/07/02 12:00:43;;;;;;;15.03;6.40;;;23.00;48.90;;;;;;5239293;28;20213;-44
2023/07/02 12:03:13;;;;;;;9.83;5.00;;;23.30;47.70;;;;;;5240618;28;20206;-44
2023/07/02 12:05:44;;;;;;;8.10;4.97;;;23.40;45.70;;;;;;5239485;28;20218;-44
2023/07/02 12:08:15;;;;;;;9.70;5.07;;;23.60;45.60;;;;;;5241827;28;20182;-43
2023/07/02 12:10:45;;;;;;;15.03;6.97;;;23.90;44.80;;;;;;5242703;28;20639;-44
2023/07/02 12:13:18;;;;;;;13.97;6.40;;;23.80;43.80;;;;;;5244002;28;20186;-44
2023/07/02 12:15:51;;;;;;;12.20;5.33;;;23.60;44.50;;;;;;5234633;28;20233;-47
2023/07/02 12:18:21;;;;;;;10.53;5.33;;;23.40;46.10;;;;;;5243584;28;20452;-43
2023/07/02 12:20:52;;;;;;;10.47;5.90;;;23.30;46.80;;;;;;5239227;28;20485;-45
2023/07/02 12:23:23;;;;;;;10.50;5.90;;;23.50;46.80;;;;;;5242871;28;20208;-43
2023/07/02 12:25:53;;;;;;;10.10;6.30;;;23.70;47.00;;;;;;5228520;28;20281;-47
2023/07/02 12:28:24;;;;;;;8.53;5.10;;;24.00;47.00;;;;;;5226888;28;20323;-47
2023/07/02 12:30:55;;;;;;;11.30;5.40;;;24.20;45.50;;;;;;5241670;28;20182;-45
2023/07/02 12:33:26;;;;;;;14.60;6.40;;;24.40;45.00;;;;;;5243393;28;20187;-44
2023/07/02 12:35:57;;;;;;;9.17;5.10;;;24.50;44.50;;;;;;5243179;28;20205;-43
2023/07/02 12:38:28;;;;;;;22.53;6.90;;;24.60;44.50;;;;;;5238535;28;20193;-45
2023/07/02 12:40:58;;;;;;;14.87;7.63;;;24.50;45.00;;;;;;5237839;28;20428;-44
2023/07/02 12:43:29;;;;;;;11.13;5.47;;;24.50;44.90;;;;;;5226116;28;20185;-44
2023/07/02 12:46:00;;;;;;;11.63;7.07;;;24.60;43.50;;;;;;5243252;28;20221;-43
2023/07/02 12:48:30;;;;;;;24.33;6.73;;;24.40;42.60;;;;;;5224279;28;20517;-45
2023/07/02 12:51:01;;;;;;;6.93;5.00;;;24.10;42.30;;;;;;5237196;28;20197;-47
2023/07/02 12:53:32;;;;;;;7.93;5.27;;;24.00;40.90;;;;;;5243435;28;20269;-44
2023/07/02 12:56:03;;;;;;;15.67;6.57;;;23.70;41.30;;;;;;5235849;28;20542;-45
2023/07/02 12:58:34;;;;;;;10.87;5.67;;;23.80;42.30;;;;;;5228708;28;20201;-44
2023/07/02 13:01:04;;;;;;;12.50;5.80;;;23.90;42.70;;;;;;5210534;28;20185;-46
2023/07/02 13:03:35;;;;;;;11.17;6.50;;;24.00;43.20;;;;;;5225319;28;20522;-45
2023/07/02 13:06:06;;;;;;;13.63;6.00;;;24.20;43.60;;;;;;5213971;28;20202;-45
2023/07/02 13:08:36;;;;;;;11.80;6.70;;;24.10;43.70;;;;;;5216475;28;20187;-46